»·PEaware :: HAL1 KLAX-PHNL

HAL1 :: KLAX-PHNL

FLIGHT INFORMATION

Flight Status: Arrived
Operator:
Hawaiian Airlines
More flights by this operator :: More flights under this callsign
Pilot: Drew Leevy (13237)
Aircraft: AIRBUS A330-200
(A332)
More flights by this aircraft type
Origin: KLAX Los Angeles Intl
United States
Destination: PHNL Honolulu Intl
United States
More flights between these airports :: More routes between these airports
Route: +PRCH2 DINTY DUETS R576 DIALO R576 DRAYK R576 DENNS MAGGI3
File this flight plan on PilotEdge
Remarks:
Altitude:
(Current/Filed)
38,000ft
Speed:
(Current/Filed)
450kts
Departed: 06-Apr-17 06:07 PM
Arrived: 06-Apr-17 11:36 PM
Distance/Time
Traveled:
2216nm/5:29
Distance/Time
To Go:
Arrived

Flight Plot

Page will automatically refresh every two minutes.

Flight plan parsing failed; only flown route is shown


Map Options




Map Legend


Flown Route
Filed Route
Departure Airport
Arrival Airport
Navaid (VOR, NDB)
Fix

Horizontal Profiles

Position Reports

Time Latitude Longitude Heading Altitude Ground
Speed
06-Apr-17 17:29 33.947338 -118.403908 193 124ft 0kts
06-Apr-17 17:30 33.947338 -118.403908 193 124ft 0kts
06-Apr-17 17:31 33.947338 -118.403908 193 124ft 0kts
06-Apr-17 17:35 33.947338 -118.403908 193 138ft 0kts
06-Apr-17 17:36 33.947338 -118.403908 193 138ft 0kts
06-Apr-17 17:37 33.947338 -118.403908 193 138ft 0kts
06-Apr-17 17:38 33.947338 -118.403908 193 138ft 0kts
06-Apr-17 17:39 33.947338 -118.403908 193 138ft 0kts
06-Apr-17 17:40 33.947338 -118.403908 193 138ft 0kts
06-Apr-17 17:41 33.947338 -118.403908 193 138ft 0kts
06-Apr-17 17:42 33.947338 -118.403908 193 138ft 0kts
06-Apr-17 17:43 33.947338 -118.403908 193 138ft 0kts
06-Apr-17 17:44 33.947338 -118.403908 193 138ft 0kts
06-Apr-17 17:45 33.947338 -118.403908 193 138ft 0kts
06-Apr-17 17:46 33.947338 -118.403908 193 138ft 0kts
06-Apr-17 17:47 33.947338 -118.403908 193 138ft 0kts
06-Apr-17 17:48 33.947338 -118.403908 193 138ft 0kts
06-Apr-17 17:49 33.947338 -118.403908 193 138ft 0kts
06-Apr-17 17:50 33.947338 -118.403908 193 138ft 0kts
06-Apr-17 17:51 33.947338 -118.403908 193 138ft 0kts
06-Apr-17 17:52 33.947338 -118.403908 193 138ft 0kts
06-Apr-17 17:53 33.947338 -118.403908 193 138ft 0kts
06-Apr-17 17:54 33.947338 -118.403908 193 138ft 0kts
06-Apr-17 17:55 33.947337 -118.403909 192 138ft 0kts
06-Apr-17 17:56 33.947335 -118.403910 192 138ft 0kts
06-Apr-17 17:57 33.947331 -118.403900 195 138ft 0kts
06-Apr-17 17:58 33.947692 -118.403615 214 137ft 0kts
06-Apr-17 17:59 33.947692 -118.403615 214 137ft 0kts
06-Apr-17 18:00 33.947692 -118.403615 214 137ft 0kts
06-Apr-17 18:01 33.947692 -118.403615 214 137ft 0kts
06-Apr-17 18:02 33.947615 -118.403864 285 138ft 2kts
06-Apr-17 18:03 33.949093 -118.401702 87 138ft 7kts
06-Apr-17 18:04 33.949300 -118.400782 25 138ft 0kts
06-Apr-17 18:05 33.949300 -118.400782 25 138ft 0kts
06-Apr-17 18:06 33.949300 -118.400782 25 138ft 0kts
06-Apr-17 18:07 33.949562 -118.400751 1 138ft 8kts
06-Apr-17 18:08 33.948984 -118.413535 263 138ft 116kts
06-Apr-17 18:09 33.945126 -118.464015 264 1409ft 186kts
06-Apr-17 18:10 33.937842 -118.540346 264 3150ft 246kts
06-Apr-17 18:11 33.930316 -118.618833 256 6029ft 252kts
06-Apr-17 18:12 33.922144 -118.703251 256 8776ft 260kts
06-Apr-17 18:13 33.913335 -118.793077 257 10681ft 299kts
06-Apr-17 18:14 33.903110 -118.897885 257 12904ft 327kts
06-Apr-17 18:15 33.892267 -119.007415 257 15555ft 336kts
06-Apr-17 18:16 33.881013 -119.119938 257 18031ft 345kts
06-Apr-17 18:17 33.869402 -119.234931 258 20380ft 351kts
06-Apr-17 18:18 33.857438 -119.352299 258 22535ft 358kts
06-Apr-17 18:19 33.845164 -119.471543 258 24442ft 365kts
06-Apr-17 18:20 33.832497 -119.593461 258 26106ft 373kts
06-Apr-17 18:21 33.819414 -119.718347 258 27671ft 381kts
06-Apr-17 18:22 33.805953 -119.845420 258 29113ft 388kts
06-Apr-17 18:23 33.792077 -119.975010 258 30382ft 395kts
06-Apr-17 18:24 33.777998 -120.105251 258 31899ft 392kts
06-Apr-17 18:25 33.763940 -120.233926 259 33330ft 387kts
06-Apr-17 18:26 33.749946 -120.360751 259 34543ft 382kts
06-Apr-17 18:27 33.738242 -120.465925 259 35394ft 380kts
06-Apr-17 18:28 33.721898 -120.611429 259 36385ft 377kts
06-Apr-17 18:29 33.710150 -120.715239 259 37000ft 377kts
06-Apr-17 18:30 33.695991 -120.839156 259 37753ft 374kts
06-Apr-17 18:31 33.679111 -120.985363 259 37884ft 387kts
06-Apr-17 18:32 33.666543 -121.093244 259 37938ft 397kts
06-Apr-17 18:33 33.648586 -121.245945 260 37969ft 399kts
06-Apr-17 18:34 33.635401 -121.357061 260 37973ft 406kts
06-Apr-17 18:35 33.619472 -121.490103 260 37971ft 405kts
06-Apr-17 18:36 33.603363 -121.623425 260 37965ft 404kts
06-Apr-17 18:37 33.587162 -121.756450 259 37965ft 404kts
06-Apr-17 18:38 33.570835 -121.889135 259 37966ft 405kts
06-Apr-17 18:39 33.554302 -122.022265 259 37970ft 404kts
06-Apr-17 18:40 33.537628 -122.155332 259 37971ft 404kts
06-Apr-17 18:41 33.520863 -122.287942 259 37969ft 404kts
06-Apr-17 18:42 33.503932 -122.420696 259 37966ft 404kts
06-Apr-17 18:43 33.486794 -122.553899 259 37965ft 404kts
06-Apr-17 18:44 33.462297 -122.684103 255 37970ft 404kts
06-Apr-17 18:45 33.435459 -122.814502 254 37971ft 403kts
06-Apr-17 18:46 33.408632 -122.943775 254 37969ft 403kts
06-Apr-17 18:47 33.381451 -123.074007 254 37967ft 404kts
06-Apr-17 18:48 33.354254 -123.203583 254 37968ft 404kts
06-Apr-17 18:49 33.326791 -123.333701 254 37968ft 404kts
06-Apr-17 18:50 33.294697 -123.484846 254 37967ft 404kts
06-Apr-17 18:51 33.271550 -123.593259 254 37965ft 404kts
06-Apr-17 18:52 33.243826 -123.722585 254 37971ft 404kts
06-Apr-17 18:53 33.215844 -123.852309 254 37971ft 404kts
06-Apr-17 18:54 33.187728 -123.981920 254 37968ft 404kts
06-Apr-17 18:55 33.159537 -124.111172 254 37966ft 404kts
06-Apr-17 18:56 33.131207 -124.240365 254 37967ft 404kts
06-Apr-17 18:57 33.102663 -124.369843 254 37967ft 404kts
06-Apr-17 18:58 33.074010 -124.499126 254 37967ft 404kts
06-Apr-17 18:59 33.045200 -124.628179 254 37965ft 404kts
06-Apr-17 19:00 33.016235 -124.757347 253 37969ft 404kts
06-Apr-17 19:01 32.987060 -124.886647 253 37967ft 405kts
06-Apr-17 19:02 32.957767 -125.015779 253 37966ft 405kts
06-Apr-17 19:03 32.928397 -125.144582 253 37967ft 405kts
06-Apr-17 19:04 32.898894 -125.273298 253 37967ft 405kts
06-Apr-17 19:05 32.869028 -125.402252 253 37966ft 405kts
06-Apr-17 19:06 32.839190 -125.531069 253 37967ft 405kts
06-Apr-17 19:07 32.809316 -125.659418 253 37970ft 405kts
06-Apr-17 19:08 32.779153 -125.788543 253 37967ft 405kts
06-Apr-17 19:09 32.748941 -125.917052 253 37968ft 405kts
06-Apr-17 19:10 32.718582 -126.045531 253 37969ft 405kts
06-Apr-17 19:11 32.688091 -126.173931 253 37969ft 405kts
06-Apr-17 19:12 32.657422 -126.302438 253 37967ft 405kts
06-Apr-17 19:13 32.626600 -126.430953 253 37966ft 405kts
06-Apr-17 19:14 32.595743 -126.558979 253 37967ft 405kts
06-Apr-17 19:15 32.564531 -126.687922 251 38008ft 414kts
06-Apr-17 19:16 32.532768 -126.818521 251 38003ft 411kts
06-Apr-17 19:17 32.500867 -126.948939 251 37993ft 413kts
06-Apr-17 19:18 32.468854 -127.079169 251 37991ft 413kts
06-Apr-17 19:19 32.436666 -127.209481 251 37993ft 413kts
06-Apr-17 19:20 32.404423 -127.339371 251 37996ft 414kts
06-Apr-17 19:21 32.371940 -127.469600 251 37996ft 414kts
06-Apr-17 19:22 32.339270 -127.599947 251 37994ft 414kts
06-Apr-17 19:23 32.306600 -127.729814 251 37995ft 414kts
06-Apr-17 19:24 32.273589 -127.860293 251 37882ft 415kts
06-Apr-17 19:25 32.240628 -127.989922 251 37880ft 415kts
06-Apr-17 19:26 32.207277 -128.120474 251 37887ft 415kts
06-Apr-17 19:27 32.173958 -128.250263 251 37877ft 418kts
06-Apr-17 19:28 32.140531 -128.379889 251 37885ft 416kts
06-Apr-17 19:29 32.106807 -128.510055 251 37891ft 415kts
06-Apr-17 19:30 32.072910 -128.640266 251 37889ft 415kts
06-Apr-17 19:31 32.039304 -128.768913 250 37888ft 415kts
06-Apr-17 19:32 32.005301 -128.898360 250 37885ft 416kts
06-Apr-17 19:33 31.970962 -129.028443 250 37885ft 416kts
06-Apr-17 19:34 31.936619 -129.157959 250 37886ft 416kts
06-Apr-17 19:35 31.902042 -129.287761 250 37885ft 416kts
06-Apr-17 19:36 31.867302 -129.417025 250 37888ft 416kts
06-Apr-17 19:37 31.832435 -129.546689 250 37886ft 417kts
06-Apr-17 19:38 31.797451 -129.676277 250 37891ft 417kts
06-Apr-17 19:39 31.762338 -129.805876 249 37889ft 417kts
06-Apr-17 19:40 31.727113 -129.935159 249 37887ft 417kts
06-Apr-17 19:41 31.691670 -130.064659 249 37887ft 417kts
06-Apr-17 19:42 31.656126 -130.193953 249 37888ft 417kts
06-Apr-17 19:43 31.620416 -130.323277 249 37887ft 417kts
06-Apr-17 19:44 31.584588 -130.452460 249 37886ft 418kts
06-Apr-17 19:45 31.548575 -130.581737 249 37884ft 418kts
06-Apr-17 19:46 31.512387 -130.711219 249 37888ft 418kts
06-Apr-17 19:47 31.476198 -130.840036 249 37887ft 418kts
06-Apr-17 19:48 31.439781 -130.969069 249 37888ft 418kts
06-Apr-17 19:49 31.403154 -131.098286 249 37887ft 418kts
06-Apr-17 19:50 31.366526 -131.226964 249 37887ft 419kts
06-Apr-17 19:51 31.329607 -131.356085 249 37886ft 419kts
06-Apr-17 19:52 31.292523 -131.485241 249 37886ft 419kts
06-Apr-17 19:53 31.255386 -131.614032 249 37885ft 420kts
06-Apr-17 19:54 31.218050 -131.743113 248 37885ft 419kts
06-Apr-17 19:55 31.180927 -131.870791 248 37886ft 420kts
06-Apr-17 19:56 31.143344 -131.999494 248 37887ft 420kts
06-Apr-17 19:57 31.105590 -132.128239 248 37887ft 420kts
06-Apr-17 19:58 31.067639 -132.257027 248 37885ft 420kts
06-Apr-17 19:59 31.029697 -132.385242 248 37885ft 420kts
06-Apr-17 20:00 30.991412 -132.514080 248 37886ft 421kts
06-Apr-17 20:01 30.953231 -132.642045 248 37885ft 421kts
06-Apr-17 20:02 30.914742 -132.770656 248 37887ft 420kts
06-Apr-17 20:03 30.877690 -132.893428 248 37891ft 421kts
06-Apr-17 20:04 30.838979 -133.021506 248 37889ft 421kts
06-Apr-17 20:05 30.800106 -133.149689 248 37887ft 421kts
06-Apr-17 20:06 30.761116 -133.277744 248 37886ft 421kts
06-Apr-17 20:07 30.721888 -133.406065 248 37887ft 422kts
06-Apr-17 20:08 30.682619 -133.533999 248 37887ft 422kts
06-Apr-17 20:09 30.643154 -133.662070 247 37889ft 422kts
06-Apr-17 20:10 30.603648 -133.789921 247 37886ft 421kts
06-Apr-17 20:11 30.564033 -133.917456 247 37886ft 422kts
06-Apr-17 20:12 30.524250 -134.045022 247 37887ft 422kts
06-Apr-17 20:13 30.484248 -134.172787 247 37888ft 422kts
06-Apr-17 20:14 30.444167 -134.300302 247 37913ft 422kts
06-Apr-17 20:15 30.404028 -134.427502 247 37871ft 423kts
06-Apr-17 20:16 30.363715 -134.554753 247 37907ft 424kts
06-Apr-17 20:17 30.323176 -134.682296 247 37922ft 423kts
06-Apr-17 20:18 30.282621 -134.809436 247 37919ft 422kts
06-Apr-17 20:19 30.241872 -134.936591 247 37803ft 422kts
06-Apr-17 20:20 30.200895 -135.063964 247 37811ft 422kts
06-Apr-17 20:21 30.159881 -135.190962 247 37810ft 423kts
06-Apr-17 20:22 30.118783 -135.317739 247 37805ft 423kts
06-Apr-17 20:23 30.077448 -135.444765 247 37802ft 423kts
06-Apr-17 20:24 30.035980 -135.571719 247 37803ft 423kts
06-Apr-17 20:25 29.994519 -135.698272 246 37804ft 423kts
06-Apr-17 20:26 29.952963 -135.824598 246 37805ft 423kts
06-Apr-17 20:27 29.911187 -135.951068 246 37806ft 423kts
06-Apr-17 20:28 29.868984 -136.077947 246 37806ft 424kts
06-Apr-17 20:29 29.826998 -136.204041 246 37807ft 424kts
06-Apr-17 20:30 29.784699 -136.330667 246 37807ft 424kts
06-Apr-17 20:31 29.742385 -136.456875 246 37807ft 424kts
06-Apr-17 20:32 29.699863 -136.583234 246 37805ft 424kts
06-Apr-17 20:33 29.657287 -136.709431 246 37808ft 424kts
06-Apr-17 20:34 29.614656 -136.835238 246 37806ft 424kts
06-Apr-17 20:35 29.571806 -136.961192 246 37805ft 424kts
06-Apr-17 20:36 29.528844 -137.087018 246 37805ft 424kts
06-Apr-17 20:37 29.485854 -137.212476 246 37806ft 424kts
06-Apr-17 20:38 29.442674 -137.338036 246 37806ft 424kts
06-Apr-17 20:39 29.399352 -137.463559 246 37805ft 424kts
06-Apr-17 20:40 29.355890 -137.589041 246 37805ft 424kts
06-Apr-17 20:41 29.312308 -137.714554 245 37808ft 425kts
06-Apr-17 20:42 29.268605 -137.839873 245 37805ft 425kts
06-Apr-17 20:43 29.224666 -137.965394 245 37804ft 425kts
06-Apr-17 20:44 29.180770 -138.090349 245 37805ft 425kts
06-Apr-17 20:45 29.136588 -138.215682 245 37805ft 425kts
06-Apr-17 20:46 29.092406 -138.340577 245 37805ft 425kts
06-Apr-17 20:47 29.048041 -138.465555 245 37804ft 425kts
06-Apr-17 20:48 29.003574 -138.590387 245 37803ft 425kts
06-Apr-17 20:49 28.961618 -138.707888 245 37811ft 427kts
06-Apr-17 20:50 28.916996 -138.832355 245 37803ft 427kts
06-Apr-17 20:51 28.873435 -138.953070 245 37799ft 428kts
06-Apr-17 20:52 28.828612 -139.077155 245 37800ft 426kts
06-Apr-17 20:53 28.783436 -139.201864 245 37807ft 425kts
06-Apr-17 20:54 28.738240 -139.326202 245 37809ft 425kts
06-Apr-17 20:55 28.693038 -139.450061 245 37807ft 426kts
06-Apr-17 20:56 28.647453 -139.574248 244 37805ft 426kts
06-Apr-17 20:57 28.602090 -139.697527 244 37809ft 426kts
06-Apr-17 20:58 28.556214 -139.821732 244 38443ft 425kts
06-Apr-17 20:59 28.510380 -139.945230 247 39109ft 423kts
06-Apr-17 21:00 28.464366 -140.069037 249 39454ft 427kts
06-Apr-17 21:01 28.418222 -140.192705 249 39832ft 428kts
06-Apr-17 21:02 28.371725 -140.316879 249 40100ft 427kts
06-Apr-17 21:03 28.325019 -140.441212 249 40144ft 428kts
06-Apr-17 21:04 28.278260 -140.565275 249 40131ft 429kts
06-Apr-17 21:05 28.231402 -140.689259 248 40123ft 430kts
06-Apr-17 21:06 28.184443 -140.813099 248 40128ft 430kts
06-Apr-17 21:07 28.137181 -140.937276 248 40134ft 430kts
06-Apr-17 21:08 28.089877 -141.061161 248 40133ft 430kts
06-Apr-17 21:09 28.042384 -141.185137 248 40130ft 430kts
06-Apr-17 21:10 27.994762 -141.309050 248 40128ft 430kts
06-Apr-17 21:11 27.946934 -141.433099 248 40127ft 430kts
06-Apr-17 21:12 27.899115 -141.556730 248 40130ft 431kts
06-Apr-17 21:13 27.850991 -141.680399 248 40134ft 431kts
06-Apr-17 21:14 27.802867 -141.804103 248 40134ft 431kts
06-Apr-17 21:15 27.754600 -141.927701 248 40120ft 430kts
06-Apr-17 21:16 27.706309 -142.050977 248 40129ft 432kts
06-Apr-17 21:17 27.657844 -142.174307 248 40137ft 431kts
06-Apr-17 21:18 27.609174 -142.297762 248 40134ft 431kts
06-Apr-17 21:19 27.561005 -142.419579 248 40127ft 432kts
06-Apr-17 21:20 27.512068 -142.542952 248 40125ft 432kts
06-Apr-17 21:21 27.465063 -142.662067 249 40133ft 432kts
06-Apr-17 21:22 27.418437 -142.782459 248 40131ft 432kts
06-Apr-17 21:23 27.369156 -142.905594 248 40130ft 433kts
06-Apr-17 21:24 27.319753 -143.028475 248 40131ft 433kts
06-Apr-17 21:25 27.270080 -143.151642 248 40131ft 433kts
06-Apr-17 21:26 27.220274 -143.274761 248 40129ft 433kts
06-Apr-17 21:27 27.170553 -143.397301 248 40137ft 433kts
06-Apr-17 21:28 27.120462 -143.520371 248 40136ft 433kts
06-Apr-17 21:29 27.070417 -143.642965 248 40129ft 434kts
06-Apr-17 21:30 27.020090 -143.765990 247 40128ft 434kts
06-Apr-17 21:31 26.969720 -143.888641 247 40129ft 435kts
06-Apr-17 21:32 26.919294 -144.011054 247 40131ft 434kts
06-Apr-17 21:33 26.868564 -144.133516 247 40132ft 435kts
06-Apr-17 21:34 26.817664 -144.256284 247 40131ft 435kts
06-Apr-17 21:35 26.766845 -144.378548 247 40129ft 435kts
06-Apr-17 21:36 26.715733 -144.501157 247 40127ft 435kts
06-Apr-17 21:37 26.664571 -144.623523 247 40129ft 435kts
06-Apr-17 21:38 26.613406 -144.745652 247 40141ft 437kts
06-Apr-17 21:39 26.562041 -144.867813 247 40124ft 436kts
06-Apr-17 21:40 26.510391 -144.990258 247 40123ft 436kts
06-Apr-17 21:41 26.458885 -145.112015 247 40131ft 436kts
06-Apr-17 21:42 26.407031 -145.234236 247 40135ft 436kts
06-Apr-17 21:43 26.355208 -145.356030 247 40132ft 436kts
06-Apr-17 21:44 26.303017 -145.478341 247 40127ft 437kts
06-Apr-17 21:45 26.250948 -145.600014 247 40126ft 437kts
06-Apr-17 21:46 26.198701 -145.721860 246 40132ft 438kts
06-Apr-17 21:47 26.146210 -145.843837 246 40134ft 437kts
06-Apr-17 21:48 26.093620 -145.965676 246 40132ft 437kts
06-Apr-17 21:49 26.041067 -146.087085 246 40129ft 438kts
06-Apr-17 21:50 25.988315 -146.208761 246 40126ft 439kts
06-Apr-17 21:51 25.935656 -146.330085 246 40139ft 438kts
06-Apr-17 21:52 25.882670 -146.451639 246 40136ft 438kts
06-Apr-17 21:53 25.829582 -146.573125 246 40127ft 438kts
06-Apr-17 21:54 25.776483 -146.694544 246 40124ft 439kts
06-Apr-17 21:55 25.723213 -146.815980 246 40129ft 439kts
06-Apr-17 21:56 25.669748 -146.937468 246 40134ft 439kts
06-Apr-17 21:57 25.616312 -147.058556 246 40133ft 439kts
06-Apr-17 21:58 25.562549 -147.180048 246 40130ft 440kts
06-Apr-17 21:59 25.508824 -147.301121 246 40128ft 440kts
06-Apr-17 22:00 25.454877 -147.422358 246 40128ft 440kts
06-Apr-17 22:01 25.400972 -147.543174 246 40129ft 440kts
06-Apr-17 22:02 25.346770 -147.664328 246 40144ft 439kts
06-Apr-17 22:03 25.292628 -147.785138 246 40133ft 441kts
06-Apr-17 22:04 25.238100 -147.906359 246 40125ft 441kts
06-Apr-17 22:05 25.183756 -148.026840 246 40126ft 441kts
06-Apr-17 22:06 25.129120 -148.147645 246 40133ft 441kts
06-Apr-17 22:07 25.074400 -148.268312 246 40135ft 441kts
06-Apr-17 22:08 25.019511 -148.389028 246 40130ft 441kts
06-Apr-17 22:09 24.973634 -148.489676 246 40133ft 441kts
06-Apr-17 22:10 24.909394 -148.630241 246 40126ft 442kts
06-Apr-17 22:11 24.854547 -148.749716 245 40134ft 442kts
06-Apr-17 22:12 24.799167 -148.870211 245 40133ft 442kts
06-Apr-17 22:13 24.752937 -148.970564 245 40131ft 442kts
06-Apr-17 22:14 24.688342 -149.110409 245 40123ft 438kts
06-Apr-17 22:15 24.632934 -149.230048 245 40138ft 441kts
06-Apr-17 22:16 24.586547 -149.329963 245 40120ft 441kts
06-Apr-17 22:17 24.521626 -149.469432 245 40127ft 441kts
06-Apr-17 22:18 24.465915 -149.588786 245 40121ft 441kts
06-Apr-17 22:19 24.419252 -149.688594 245 40133ft 442kts
06-Apr-17 22:20 24.353996 -149.827769 245 40136ft 441kts
06-Apr-17 22:21 24.297890 -149.947049 245 40134ft 441kts
06-Apr-17 22:22 24.251054 -150.046389 245 40132ft 442kts
06-Apr-17 22:23 24.185188 -150.185738 245 40133ft 442kts
06-Apr-17 22:24 24.138155 -150.284992 245 40132ft 442kts
06-Apr-17 22:25 24.081682 -150.403890 245 40130ft 442kts
06-Apr-17 22:26 24.024935 -150.523067 245 40127ft 442kts
06-Apr-17 22:27 23.968081 -150.642178 245 40128ft 443kts
06-Apr-17 22:28 23.911176 -150.761206 244 40138ft 443kts
06-Apr-17 22:29 23.854005 -150.880099 244 40136ft 443kts
06-Apr-17 22:30 23.796799 -150.999018 244 40135ft 443kts
06-Apr-17 22:31 23.739514 -151.117836 244 40134ft 443kts
06-Apr-17 22:32 23.682057 -151.236718 244 40132ft 444kts
06-Apr-17 22:33 23.624594 -151.355322 244 40131ft 444kts
06-Apr-17 22:34 23.567022 -151.473861 244 40130ft 444kts
06-Apr-17 22:35 23.509442 -151.592127 244 40126ft 444kts
06-Apr-17 22:36 23.451486 -151.710988 244 40138ft 445kts
06-Apr-17 22:37 23.393640 -151.829248 244 40139ft 445kts
06-Apr-17 22:38 23.335348 -151.948108 244 40134ft 445kts
06-Apr-17 22:39 23.277307 -152.066180 244 40135ft 445kts
06-Apr-17 22:40 23.218931 -152.184640 244 40134ft 445kts
06-Apr-17 22:41 23.160692 -152.302543 244 40132ft 445kts
06-Apr-17 22:42 23.102170 -152.420739 244 40131ft 445kts
06-Apr-17 22:43 23.043386 -152.539183 244 40130ft 446kts
06-Apr-17 22:44 22.984714 -152.656583 244 40129ft 446kts
06-Apr-17 22:45 22.925544 -152.774558 244 40137ft 446kts
06-Apr-17 22:46 22.866207 -152.892227 244 40136ft 446kts
06-Apr-17 22:47 22.806748 -153.010057 244 40135ft 446kts
06-Apr-17 22:48 22.747207 -153.127821 244 40133ft 447kts
06-Apr-17 22:49 22.687628 -153.245390 244 40133ft 447kts
06-Apr-17 22:50 22.627698 -153.363375 244 40128ft 446kts
06-Apr-17 22:51 22.568030 -153.480582 244 40130ft 447kts
06-Apr-17 22:52 22.508032 -153.598163 244 40129ft 447kts
06-Apr-17 22:53 22.448130 -153.715400 243 40112ft 447kts
06-Apr-17 22:54 22.388049 -153.832630 243 40110ft 447kts
06-Apr-17 22:55 22.336255 -153.953783 249 40109ft 446kts
06-Apr-17 22:56 22.289980 -154.077353 250 40108ft 446kts
06-Apr-17 22:57 22.243540 -154.201320 250 40106ft 446kts
06-Apr-17 22:58 22.197180 -154.324753 250 40105ft 446kts
06-Apr-17 22:59 22.150708 -154.448156 250 40104ft 446kts
06-Apr-17 23:00 22.103918 -154.572073 250 40103ft 446kts
06-Apr-17 23:01 22.057617 -154.694450 249 40113ft 447kts
06-Apr-17 23:02 22.010613 -154.818321 249 40110ft 447kts
06-Apr-17 23:03 21.963688 -154.941621 249 40110ft 447kts
06-Apr-17 23:04 21.916475 -155.065346 249 40108ft 447kts
06-Apr-17 23:05 21.869439 -155.187942 249 40106ft 447kts
06-Apr-17 23:06 21.822063 -155.311398 249 40105ft 447kts
06-Apr-17 23:07 21.774547 -155.434946 249 40101ft 447kts
06-Apr-17 23:08 21.727088 -155.558028 249 40103ft 448kts
06-Apr-17 23:09 21.682573 -155.673371 249 39689ft 451kts
06-Apr-17 23:10 21.636120 -155.796833 250 38475ft 447kts
06-Apr-17 23:11 21.590333 -155.918044 250 37175ft 429kts
06-Apr-17 23:12 21.546101 -156.034906 250 35918ft 426kts
06-Apr-17 23:13 21.501305 -156.152929 250 34604ft 430kts
06-Apr-17 23:14 21.455823 -156.272465 250 33248ft 436kts
06-Apr-17 23:15 21.409820 -156.393076 249 31872ft 440kts
06-Apr-17 23:16 21.363232 -156.514908 249 30458ft 445kts
06-Apr-17 23:17 21.316517 -156.638116 249 28484ft 447kts
06-Apr-17 23:18 21.270784 -156.759543 248 26183ft 439kts
06-Apr-17 23:19 21.225581 -156.879158 247 23906ft 430kts
06-Apr-17 23:20 21.180962 -156.996939 246 21561ft 425kts
06-Apr-17 23:21 21.136812 -157.113146 247 19321ft 420kts
06-Apr-17 23:22 21.093523 -157.226892 247 17149ft 413kts
06-Apr-17 23:23 21.050597 -157.339410 247 14994ft 405kts
06-Apr-17 23:24 21.008476 -157.449558 247 12870ft 397kts
06-Apr-17 23:25 20.969026 -157.557631 260 11115ft 388kts
06-Apr-17 23:26 20.989095 -157.664472 288 10436ft 356kts
06-Apr-17 23:27 21.019000 -157.761519 289 9563ft 339kts
06-Apr-17 23:28 21.049469 -157.857453 289 8050ft 343kts
06-Apr-17 23:29 21.077413 -157.952400 277 6437ft 346kts
06-Apr-17 23:30 21.103224 -158.044646 298 4897ft 312kts
06-Apr-17 23:31 21.153405 -158.116324 326 3078ft 291kts
06-Apr-17 23:32 21.206363 -158.089728 62 2455ft 228kts
06-Apr-17 23:33 21.235373 -158.039096 53 2284ft 161kts
06-Apr-17 23:34 21.258913 -158.005124 52 1832ft 147kts
06-Apr-17 23:35 21.283234 -157.970742 51 1049ft 145kts
06-Apr-17 23:36 21.306517 -157.937574 52 288ft 137kts
06-Apr-17 23:37 21.324683 -157.913480 14 22ft 33kts
06-Apr-17 23:38 21.291065 -157.959655 52 790ft 142kts
06-Apr-17 23:39 21.314096 -157.926877 50 66ft 139kts
06-Apr-17 23:40 21.296714 -157.951411 52 581ft 138kts
06-Apr-17 23:41 21.319292 -157.919556 53 19ft 107kts
06-Apr-17 23:42 21.328071 -157.913560 250 34ft 4kts
06-Apr-17 23:43 21.327897 -157.915329 300 32ft 6kts
06-Apr-17 23:44 21.328608 -157.915751 354 33ft 0kts
06-Apr-17 23:45 21.328737 -157.915749 2 34ft 0kts

Navigation Log

Ident Type
Flight plan parsing failed, navigation log unavailable